Time;durP1;ratioP1;P1;durP2;ratioP2;P2;SDS_P1;SDS_P2;PMS_P1;PMS_P2;Temp;Humidity;BMP_temperature;BMP_pressure;BME280_temperature;BME280_humidity;BME280_pressure;Samples;Min_cycle;Max_cycle;Signal;HPM_P1;HPM_P2
2023/04/20 00:01:11;;;;;;;6.63;3.60;;;;;;;;;;5111420;28;20493;-64
2023/04/20 00:03:38;;;;;;;3.78;2.85;;;;;;;;;;5110614;28;20145;-64
2023/04/20 00:06:04;;;;;;;4.38;2.50;;;;;;;;;;5111111;28;20047;-64
2023/04/20 00:08:31;;;;;;;5.13;3.15;;;;;;;;;;5110830;28;20047;-65
2023/04/20 00:10:59;;;;;;;4.85;3.30;;;;;;;;;;5111093;28;20050;-63
2023/04/20 00:13:26;;;;;;;5.35;2.80;;;;;;;;;;5110937;28;20500;-64
2023/04/20 00:15:52;;;;;;;3.58;2.83;;;;;;;;;;5110706;28;20084;-64
2023/04/20 00:18:19;;;;;;;5.95;2.80;;;;;;;;;;5110573;28;20047;-63
2023/04/20 00:20:45;;;;;;;5.10;2.72;;;;;;;;;;5110646;28;20101;-64
2023/04/20 00:23:15;;;;;;;3.05;2.70;;;;;;;;;;5110923;28;20044;-64
2023/04/20 00:25:41;;;;;;;3.78;2.75;;;;;;;;;;5110739;28;20055;-64
2023/04/20 00:28:09;;;;;;;5.13;2.63;;;;;;;;;;5110940;28;20420;-64
2023/04/20 00:30:36;;;;;;;3.70;3.00;;;;;;;;;;5110706;28;20043;-64
2023/04/20 00:33:02;;;;;;;3.55;3.00;;;;;;;;;;5111036;28;20532;-64
2023/04/20 00:35:29;;;;;;;6.35;3.10;;;;;;;;;;5110159;28;20052;-64
2023/04/20 00:37:56;;;;;;;3.03;2.67;;;;;;;;;;5110710;28;20159;-64
2023/04/20 00:40:22;;;;;;;3.60;2.63;;;;;;;;;;5110419;28;20401;-63
2023/04/20 00:42:49;;;;;;;5.30;2.80;;;;;;;;;;5110549;28;20043;-64
2023/04/20 00:45:20;;;;;;;3.97;2.55;;;;;;;;;;5110220;28;20050;-64
2023/04/20 00:47:47;;;;;;;4.35;2.63;;;;;;;;;;5110806;28;20048;-64
2023/04/20 00:50:15;;;;;;;3.80;2.67;;;;;;;;;;5110674;28;20089;-64
2023/04/20 00:52:42;;;;;;;5.55;2.55;;;;;;;;;;5111155;28;20508;-64
2023/04/20 00:55:09;;;;;;;3.88;2.55;;;;;;;;;;5110451;28;20054;-64
2023/04/20 00:57:35;;;;;;;4.53;2.72;;;;;;;;;;5110283;28;20047;-64
2023/04/20 01:00:05;;;;;;;5.65;2.88;;;;;;;;;;5110356;28;20043;-64
2023/04/20 01:02:33;;;;;;;4.13;2.85;;;;;;;;;;5110402;28;20051;-64
2023/04/20 01:05:00;;;;;;;4.35;3.13;;;;;;;;;;5109927;28;20039;-64
2023/04/20 01:07:28;;;;;;;4.47;2.47;;;;;;;;;;5110236;28;20056;-64
2023/04/20 01:09:55;;;;;;;3.10;2.63;;;;;;;;;;5110207;28;20506;-64
2023/04/20 01:12:21;;;;;;;3.65;2.80;;;;;;;;;;5110528;28;20043;-64
2023/04/20 01:14:48;;;;;;;3.65;2.40;;;;;;;;;;5110418;28;20143;-64
2023/04/20 01:17:16;;;;;;;4.82;2.95;;;;;;;;;;5110111;28;20040;-63
2023/04/20 01:19:44;;;;;;;3.58;2.70;;;;;;;;;;5110358;28;20097;-64
2023/04/20 01:22:16;;;;;;;7.10;2.92;;;;;;;;;;5109956;28;20179;-64
2023/04/20 01:24:43;;;;;;;3.70;3.00;;;;;;;;;;5110366;28;20043;-65
2023/04/20 01:27:10;;;;;;;3.05;2.42;;;;;;;;;;5109741;28;20131;-64
2023/04/20 01:29:37;;;;;;;5.20;3.20;;;;;;;;;;5110029;28;20093;-64
2023/04/20 01:32:04;;;;;;;4.13;2.70;;;;;;;;;;5110453;28;20402;-64
2023/04/20 01:34:31;;;;;;;5.53;2.60;;;;;;;;;;5114122;28;20533;-64
2023/04/20 01:36:57;;;;;;;4.72;2.67;;;;;;;;;;5113267;28;20104;-64
2023/04/20 01:39:26;;;;;;;4.93;2.53;;;;;;;;;;5113304;28;20050;-64
2023/04/20 01:41:52;;;;;;;5.75;2.60;;;;;;;;;;5113225;28;20044;-64
2023/04/20 01:44:19;;;;;;;6.45;2.88;;;;;;;;;;5113985;28;20047;-64
2023/04/20 01:46:45;;;;;;;3.78;2.63;;;;;;;;;;5113356;28;20476;-64
2023/04/20 01:49:12;;;;;;;6.82;2.95;;;;;;;;;;5113781;28;20489;-64
2023/04/20 01:51:38;;;;;;;3.63;2.70;;;;;;;;;;5113368;28;20420;-62
2023/04/20 01:54:05;;;;;;;4.28;2.78;;;;;;;;;;5113266;28;20054;-64
2023/04/20 01:56:33;;;;;;;5.68;3.08;;;;;;;;;;5113345;28;20044;-64
2023/04/20 01:58:59;;;;;;;5.15;3.33;;;;;;;;;;5113467;28;20054;-65
2023/04/20 02:01:26;;;;;;;4.53;3.53;;;;;;;;;;5113068;28;20043;-64
2023/04/20 02:03:52;;;;;;;4.60;2.92;;;;;;;;;;5113389;28;20043;-64
2023/04/20 02:06:19;;;;;;;4.68;2.88;;;;;;;;;;5113077;28;20048;-64
2023/04/20 02:08:46;;;;;;;4.47;2.90;;;;;;;;;;5112951;28;20066;-64
2023/04/20 02:11:12;;;;;;;5.75;3.20;;;;;;;;;;5113337;28;20459;-64
2023/04/20 02:13:40;;;;;;;6.70;3.45;;;;;;;;;;5112966;28;20052;-64
2023/04/20 02:16:07;;;;;;;5.90;3.38;;;;;;;;;;5113176;28;20044;-65
2023/04/20 02:18:33;;;;;;;5.18;2.90;;;;;;;;;;5112352;28;20044;-63
2023/04/20 02:21:00;;;;;;;4.85;2.92;;;;;;;;;;5112930;28;20066;-64
2023/04/20 02:23:27;;;;;;;5.22;3.05;;;;;;;;;;5112830;28;20070;-64
2023/04/20 02:25:53;;;;;;;4.43;3.28;;;;;;;;;;5112700;28;20048;-63
2023/04/20 02:28:20;;;;;;;4.15;3.00;;;;;;;;;;5112599;28;20051;-64
2023/04/20 02:30:48;;;;;;;4.65;3.20;;;;;;;;;;5112544;28;20096;-64
2023/04/20 02:33:14;;;;;;;4.10;3.10;;;;;;;;;;5112292;28;20043;-64
2023/04/20 02:35:41;;;;;;;3.75;2.97;;;;;;;;;;5112507;28;20122;-64
2023/04/20 02:38:08;;;;;;;4.90;3.70;;;;;;;;;;5111914;28;20039;-64
2023/04/20 02:40:34;;;;;;;4.85;2.80;;;;;;;;;;5112424;28;20043;-64
2023/04/20 02:43:01;;;;;;;5.05;3.40;;;;;;;;;;5111662;28;20058;-64
2023/04/20 02:45:27;;;;;;;5.28;3.15;;;;;;;;;;5112233;28;20054;-65
2023/04/20 02:47:56;;;;;;;6.07;3.80;;;;;;;;;;5112200;28;20536;-64
2023/04/20 02:50:22;;;;;;;5.28;3.55;;;;;;;;;;5112524;28;20059;-64
2023/04/20 02:52:49;;;;;;;4.13;2.95;;;;;;;;;;5112381;28;20524;-64
2023/04/20 02:55:15;;;;;;;4.32;3.20;;;;;;;;;;5112179;28;20054;-64
2023/04/20 02:57:42;;;;;;;4.35;3.17;;;;;;;;;;5112150;28;20408;-64
2023/04/20 03:00:12;;;;;;;4.63;3.38;;;;;;;;;;5112179;28;20480;-64
2023/04/20 03:02:38;;;;;;;6.88;3.50;;;;;;;;;;5112345;28;20417;-63
2023/04/20 03:05:07;;;;;;;4.40;3.33;;;;;;;;;;5112070;28;20040;-64
2023/04/20 03:07:34;;;;;;;4.70;3.30;;;;;;;;;;5112235;28;20052;-64
2023/04/20 03:10:00;;;;;;;4.60;3.22;;;;;;;;;;5111895;28;20485;-63
2023/04/20 03:12:27;;;;;;;6.85;3.35;;;;;;;;;;5111741;28;20048;-64
2023/04/20 03:14:53;;;;;;;6.00;3.47;;;;;;;;;;5111429;28;20131;-65
2023/04/20 03:17:20;;;;;;;4.95;3.35;;;;;;;;;;5111675;28;20048;-64
2023/04/20 03:19:47;;;;;;;6.07;3.22;;;;;;;;;;5111363;28;20039;-64
2023/04/20 03:22:14;;;;;;;5.43;3.58;;;;;;;;;;5112056;28;20054;-64
2023/04/20 03:24:41;;;;;;;4.70;3.13;;;;;;;;;;5111209;28;20057;-64
2023/04/20 03:27:08;;;;;;;4.82;3.28;;;;;;;;;;5111561;28;20043;-64
2023/04/20 03:29:34;;;;;;;3.78;3.05;;;;;;;;;;5111204;28;20053;-64
2023/04/20 03:32:01;;;;;;;3.85;3.17;;;;;;;;;;5111698;28;20040;-64
2023/04/20 03:34:27;;;;;;;5.18;3.40;;;;;;;;;;5111498;28;20066;-64
2023/04/20 03:36:54;;;;;;;6.13;3.45;;;;;;;;;;5111494;28;20400;-64
2023/04/20 03:39:22;;;;;;;5.22;3.17;;;;;;;;;;5111406;28;20402;-63
2023/04/20 03:41:48;;;;;;;4.93;3.83;;;;;;;;;;5111320;28;20123;-64
2023/04/20 03:44:15;;;;;;;6.35;3.85;;;;;;;;;;5111016;28;20040;-64
2023/04/20 03:46:42;;;;;;;6.78;3.70;;;;;;;;;;5110863;28;20079;-64
2023/04/20 03:49:08;;;;;;;7.45;3.70;;;;;;;;;;5111117;28;20055;-64
2023/04/20 03:51:35;;;;;;;12.85;4.50;;;;;;;;;;5110923;28;20129;-64
2023/04/20 03:54:01;;;;;;;6.95;3.88;;;;;;;;;;5111272;28;20051;-65
2023/04/20 03:56:29;;;;;;;6.00;3.80;;;;;;;;;;5110246;28;20539;-65
2023/04/20 03:58:56;;;;;;;5.43;3.53;;;;;;;;;;5111235;28;20492;-65
2023/04/20 04:01:22;;;;;;;5.90;3.60;;;;;;;;;;5110983;28;20531;-64
2023/04/20 04:03:49;;;;;;;5.95;3.50;;;;;;;;;;5111199;28;20413;-64
2023/04/20 04:06:15;;;;;;;5.22;3.40;;;;;;;;;;5110693;28;20097;-64
2023/04/20 04:08:42;;;;;;;7.45;3.95;;;;;;;;;;5111219;28;20054;-64
2023/04/20 04:11:09;;;;;;;7.60;3.83;;;;;;;;;;5110722;28;20044;-64
2023/04/20 04:13:36;;;;;;;5.80;3.95;;;;;;;;;;5110987;28;20059;-64
2023/04/20 04:16:03;;;;;;;6.07;3.70;;;;;;;;;;5110693;28;20485;-64
2023/04/20 04:18:31;;;;;;;6.15;3.65;;;;;;;;;;5110776;28;20548;-64
2023/04/20 04:20:58;;;;;;;7.15;3.78;;;;;;;;;;5110737;28;20434;-64
2023/04/20 04:23:25;;;;;;;5.07;3.40;;;;;;;;;;5111059;28;20048;-64
2023/04/20 04:25:51;;;;;;;9.57;4.00;;;;;;;;;;5110332;28;20079;-65
2023/04/20 04:28:18;;;;;;;5.25;3.72;;;;;;;;;;5110671;28;20047;-65
2023/04/20 04:30:46;;;;;;;6.53;3.90;;;;;;;;;;5110644;28;20048;-65
2023/04/20 04:33:13;;;;;;;4.93;3.75;;;;;;;;;;5110333;28;20047;-65
2023/04/20 04:35:40;;;;;;;5.50;3.70;;;;;;;;;;5110461;28;20043;-65
2023/04/20 04:38:06;;;;;;;9.88;4.18;;;;;;;;;;5110397;28;20378;-64
2023/04/20 04:40:33;;;;;;;7.95;4.03;;;;;;;;;;5110967;28;20434;-64
2023/04/20 04:43:00;;;;;;;6.75;3.95;;;;;;;;;;5110530;28;20046;-64
2023/04/20 04:45:26;;;;;;;5.90;3.95;;;;;;;;;;5114324;22;20044;-67
2023/04/20 04:47:55;;;;;;;7.20;3.40;;;;;;;;;;5089486;28;20044;-67
2023/04/20 04:50:22;;;;;;;7.13;3.67;;;;;;;;;;5089877;28;20146;-67
2023/04/20 04:52:49;;;;;;;4.72;3.72;;;;;;;;;;5089879;28;20048;-67
2023/04/20 04:55:16;;;;;;;7.82;4.38;;;;;;;;;;5089835;28;20269;-67
2023/04/20 04:57:44;;;;;;;6.47;3.72;;;;;;;;;;5089457;28;20493;-66
2023/04/20 05:00:12;;;;;;;5.80;3.50;;;;;;;;;;5089784;28;20047;-67
2023/04/20 05:02:39;;;;;;;9.38;3.92;;;;;;;;;;5090153;28;20044;-67
2023/04/20 05:05:08;;;;;;;5.07;3.47;;;;;;;;;;5089444;28;20041;-67
2023/04/20 05:07:35;;;;;;;4.82;3.40;;;;;;;;;;5092190;28;20415;-67
2023/04/20 05:10:01;;;;;;;7.13;3.58;;;;;;;;;;5093789;28;20054;-67
2023/04/20 05:12:28;;;;;;;5.18;3.60;;;;;;;;;;5093490;28;20120;-68
2023/04/20 05:14:54;;;;;;;5.55;3.90;;;;;;;;;;5093556;28;20044;-67
2023/04/20 05:17:21;;;;;;;6.32;4.00;;;;;;;;;;5093539;28;20052;-67
2023/04/20 05:19:48;;;;;;;5.13;3.75;;;;;;;;;;5093087;28;20044;-67
2023/04/20 05:22:16;;;;;;;4.38;3.25;;;;;;;;;;5093581;28;20318;-67
2023/04/20 05:24:42;;;;;;;4.28;3.10;;;;;;;;;;5093179;28;20044;-68
2023/04/20 05:27:10;;;;;;;4.80;3.08;;;;;;;;;;5093190;28;20040;-66
2023/04/20 05:29:36;;;;;;;5.15;3.20;;;;;;;;;;5093281;28;20139;-67
2023/04/20 05:32:03;;;;;;;4.03;3.10;;;;;;;;;;5093675;28;20048;-67
2023/04/20 05:34:32;;;;;;;7.90;3.10;;;;;;;;;;5093358;28;20048;-67
2023/04/20 05:36:59;;;;;;;5.95;3.10;;;;;;;;;;5092869;28;20050;-66
2023/04/20 05:39:27;;;;;;;5.10;3.53;;;;;;;;;;5093048;28;20044;-67
2023/04/20 05:41:54;;;;;;;6.18;3.80;;;;;;;;;;5089766;28;20151;-66
2023/04/20 05:44:20;;;;;;;4.88;3.33;;;;;;;;;;5081874;28;20048;-66
2023/04/20 05:46:47;;;;;;;8.65;3.53;;;;;;;;;;5084970;28;20093;-67
2023/04/20 05:49:14;;;;;;;6.00;2.97;;;;;;;;;;5091656;28;20493;-67
2023/04/20 05:51:40;;;;;;;9.35;3.97;;;;;;;;;;5092076;28;20415;-67
2023/04/20 05:54:07;;;;;;;7.53;4.05;;;;;;;;;;5090172;28;20036;-67
2023/04/20 05:56:35;;;;;;;6.68;4.10;;;;;;;;;;5078259;28;20135;-67
2023/04/20 05:59:02;;;;;;;6.82;3.90;;;;;;;;;;5084849;28;20385;-68
2023/04/20 06:01:28;;;;;;;6.25;4.05;;;;;;;;;;5090226;28;20051;-67
2023/04/20 06:03:55;;;;;;;4.60;4.07;;;;;;;;;;5087933;28;20212;-67
2023/04/20 06:06:21;;;;;;;6.55;3.97;;;;;;;;;;5086595;28;20048;-67
2023/04/20 06:08:49;;;;;;;5.22;3.85;;;;;;;;;;5081979;28;20052;-66
2023/04/20 06:11:16;;;;;;;4.85;3.75;;;;;;;;;;5089288;28;20055;-66
2023/04/20 06:13:44;;;;;;;8.57;3.70;;;;;;;;;;5090508;28;20434;-67
2023/04/20 06:16:11;;;;;;;7.07;4.03;;;;;;;;;;5074284;28;20048;-66
2023/04/20 06:18:37;;;;;;;7.10;3.75;;;;;;;;;;5081992;28;20178;-67
2023/04/20 06:21:04;;;;;;;6.63;3.72;;;;;;;;;;5085255;28;20047;-68
2023/04/20 06:23:31;;;;;;;8.55;4.07;;;;;;;;;;5091788;28;20086;-67
2023/04/20 06:25:57;;;;;;;9.93;4.82;;;;;;;;;;5091831;28;20058;-67
2023/04/20 06:28:24;;;;;;;9.68;4.25;;;;;;;;;;5090643;28;20044;-67
2023/04/20 06:30:52;;;;;;;9.88;4.55;;;;;;;;;;5090280;28;20059;-67
2023/04/20 06:33:18;;;;;;;6.50;4.63;;;;;;;;;;5090226;28;20050;-66
2023/04/20 06:35:45;;;;;;;6.88;4.50;;;;;;;;;;5091072;28;20048;-67
2023/04/20 06:38:12;;;;;;;7.88;4.53;;;;;;;;;;5084882;28;20040;-67
2023/04/20 06:40:38;;;;;;;6.90;4.28;;;;;;;;;;5086948;28;20141;-67
2023/04/20 06:43:05;;;;;;;8.63;4.85;;;;;;;;;;5078503;28;20056;-65
2023/04/20 06:45:34;;;;;;;7.97;5.20;;;;;;;;;;5081279;28;20044;-67
2023/04/20 06:48:03;;;;;;;11.48;5.35;;;;;;;;;;5077533;28;20486;-66
2023/04/20 06:50:29;;;;;;;8.85;5.07;;;;;;;;;;5080148;28;20083;-67
2023/04/20 06:52:56;;;;;;;11.45;5.40;;;;;;;;;;5071132;28;20051;-67
2023/04/20 06:55:22;;;;;;;10.07;6.20;;;;;;;;;;5077948;28;20044;-66
2023/04/20 06:57:49;;;;;;;6.45;5.05;;;;;;;;;;5090695;28;20511;-67
2023/04/20 07:00:17;;;;;;;8.95;5.68;;;;;;;;;;5090398;28;20048;-65
2023/04/20 07:02:45;;;;;;;8.50;6.10;;;;;;;;;;5090641;28;20048;-67
2023/04/20 07:05:13;;;;;;;8.68;5.13;;;;;;;;;;5089851;28;20131;-65
2023/04/20 07:07:40;;;;;;;9.60;5.45;;;;;;;;;;5090367;28;20055;-66
2023/04/20 07:10:08;;;;;;;7.03;4.90;;;;;;;;;;5089980;28;20051;-67
2023/04/20 07:12:35;;;;;;;10.18;5.93;;;;;;;;;;5089425;28;20093;-66
2023/04/20 07:15:03;;;;;;;9.55;5.85;;;;;;;;;;5090873;28;20044;-67
2023/04/20 07:17:30;;;;;;;8.68;5.15;;;;;;;;;;5091588;28;20142;-67
2023/04/20 07:19:57;;;;;;;8.23;5.72;;;;;;;;;;5091263;28;20048;-67
2023/04/20 07:22:25;;;;;;;9.63;6.10;;;;;;;;;;5091337;28;20078;-67
2023/04/20 07:24:52;;;;;;;7.22;5.05;;;;;;;;;;5091573;28;20063;-67
2023/04/20 07:27:18;;;;;;;8.63;6.10;;;;;;;;;;5091374;28;20501;-66
2023/04/20 07:29:45;;;;;;;6.82;5.35;;;;;;;;;;5090354;28;20413;-67
2023/04/20 07:32:12;;;;;;;7.95;6.20;;;;;;;;;;5091050;28;20511;-67
2023/04/20 07:34:38;;;;;;;7.97;5.80;;;;;;;;;;5091045;28;20097;-67
2023/04/20 07:37:05;;;;;;;10.38;6.20;;;;;;;;;;5090800;28;20040;-67
2023/04/20 07:39:33;;;;;;;8.68;5.88;;;;;;;;;;5091070;28;20055;-66
2023/04/20 07:42:02;;;;;;;7.70;5.97;;;;;;;;;;5090655;28;20048;-67
2023/04/20 07:44:29;;;;;;;9.32;6.25;;;;;;;;;;5089765;28;20054;-66
2023/04/20 07:46:56;;;;;;;8.23;5.78;;;;;;;;;;5090471;28;20143;-67
2023/04/20 07:49:23;;;;;;;9.15;6.43;;;;;;;;;;5091086;28;20047;-67
2023/04/20 07:51:49;;;;;;;8.32;5.90;;;;;;;;;;5090438;28;20047;-67
2023/04/20 07:54:16;;;;;;;8.50;6.07;;;;;;;;;;5090934;28;20072;-67
2023/04/20 07:56:44;;;;;;;8.30;5.97;;;;;;;;;;5090580;28;20040;-67
2023/04/20 07:59:10;;;;;;;8.93;6.03;;;;;;;;;;5077955;28;20067;-66
2023/04/20 08:01:37;;;;;;;8.52;5.85;;;;;;;;;;5086618;28;20132;-67
2023/04/20 08:04:04;;;;;;;8.85;5.93;;;;;;;;;;5090181;28;20044;-66
2023/04/20 08:06:30;;;;;;;9.25;6.40;;;;;;;;;;5089813;28;20097;-67
2023/04/20 08:08:57;;;;;;;8.23;6.22;;;;;;;;;;5090054;28;20052;-67
2023/04/20 08:11:25;;;;;;;9.18;6.10;;;;;;;;;;5090519;28;20048;-66
2023/04/20 08:13:53;;;;;;;10.73;6.45;;;;;;;;;;5090308;28;20098;-67
2023/04/20 08:16:20;;;;;;;8.40;6.30;;;;;;;;;;5090225;28;20047;-67
2023/04/20 08:18:46;;;;;;;10.02;6.20;;;;;;;;;;5089851;28;20063;-66
2023/04/20 08:21:13;;;;;;;10.00;6.38;;;;;;;;;;5087974;28;20050;-67
2023/04/20 08:23:40;;;;;;;7.22;6.07;;;;;;;;;;5090154;28;20051;-67
2023/04/20 08:26:06;;;;;;;9.18;6.22;;;;;;;;;;5090424;28;20505;-67
2023/04/20 08:28:33;;;;;;;8.10;6.28;;;;;;;;;;5090314;28;20044;-66
2023/04/20 08:31:01;;;;;;;7.15;5.30;;;;;;;;;;5090577;28;20507;-68
2023/04/20 08:33:27;;;;;;;7.85;5.28;;;;;;;;;;5088755;28;20417;-67
2023/04/20 08:35:54;;;;;;;7.25;5.22;;;;;;;;;;5090034;28;20258;-67
2023/04/20 08:38:21;;;;;;;6.57;5.53;;;;;;;;;;5090066;28;20076;-67
2023/04/20 08:40:47;;;;;;;6.63;5.13;;;;;;;;;;5090031;28;20044;-67
2023/04/20 08:43:14;;;;;;;7.20;5.30;;;;;;;;;;5094235;28;20257;-67
2023/04/20 08:45:44;;;;;;;8.50;5.28;;;;;;;;;;5093793;28;20501;-67
2023/04/20 08:48:12;;;;;;;7.53;5.03;;;;;;;;;;5094095;28;20067;-67
2023/04/20 08:50:41;;;;;;;8.30;5.82;;;;;;;;;;5088592;28;20055;-66
2023/04/20 08:53:08;;;;;;;6.30;4.60;;;;;;;;;;5086780;28;20045;-67
2023/04/20 08:55:35;;;;;;;7.38;5.28;;;;;;;;;;5073356;28;20048;-68
2023/04/20 08:58:01;;;;;;;5.13;4.57;;;;;;;;;;5073974;28;20457;-67
2023/04/20 09:00:29;;;;;;;5.60;3.75;;;;;;;;;;5073160;28;20048;-67
2023/04/20 09:02:57;;;;;;;5.40;4.50;;;;;;;;;;5073421;28;20489;-67
2023/04/20 09:05:27;;;;;;;6.00;4.25;;;;;;;;;;5073446;28;20046;-67
2023/04/20 09:07:55;;;;;;;4.85;4.22;;;;;;;;;;5073630;28;20471;-67
2023/04/20 09:10:23;;;;;;;4.93;3.75;;;;;;;;;;5073919;28;20052;-67
2023/04/20 09:12:51;;;;;;;5.50;4.70;;;;;;;;;;5093633;28;20044;-67
2023/04/20 09:15:25;;;;;;;4.68;4.00;;;;;;;;;;5093734;28;20482;-67
2023/04/20 09:17:52;;;;;;;5.22;4.38;;;;;;;;;;5093623;28;20416;-66
2023/04/20 09:20:29;;;;;;;5.72;4.80;;;;;;;;;;5089514;28;20040;-67
2023/04/20 09:22:55;;;;;;;7.05;4.88;;;;;;;;;;5073112;28;20135;-68
2023/04/20 09:25:25;;;;;;;6.57;4.63;;;;;;;;;;5073481;28;20041;-67
2023/04/20 09:27:56;;;;;;;6.32;5.20;;;;;;;;;;5072902;28;20450;-68
2023/04/20 09:30:22;;;;;;;5.30;4.43;;;;;;;;;;5073089;28;20052;-67
2023/04/20 09:32:49;;;;;;;7.03;4.60;;;;;;;;;;5073172;28;20411;-67
2023/04/20 09:35:23;;;;;;;6.68;5.68;;;;;;;;;;5073385;28;20041;-67
2023/04/20 09:37:50;;;;;;;5.53;4.90;;;;;;;;;;5072467;28;20090;-67
2023/04/20 09:40:20;;;;;;;5.93;5.00;;;;;;;;;;5074492;28;20051;-67
2023/04/20 09:42:48;;;;;;;8.18;5.32;;;;;;;;;;5093036;28;20056;-67
2023/04/20 09:45:16;;;;;;;6.35;5.15;;;;;;;;;;5092962;28;20052;-67
2023/04/20 09:47:43;;;;;;;7.70;5.20;;;;;;;;;;5092948;28;20051;-67
2023/04/20 09:50:11;;;;;;;7.78;5.53;;;;;;;;;;5090343;28;20047;-67
2023/04/20 09:52:38;;;;;;;7.82;4.90;;;;;;;;;;5077084;28;20489;-68
2023/04/20 09:55:07;;;;;;;6.38;5.07;;;;;;;;;;5092078;28;20040;-68
2023/04/20 09:57:35;;;;;;;6.70;4.88;;;;;;;;;;5092817;28;20351;-68
2023/04/20 10:00:04;;;;;;;6.93;5.50;;;;;;;;;;5092327;28;20048;-67
2023/04/20 10:02:31;;;;;;;6.72;5.13;;;;;;;;;;5092560;28;20101;-68
2023/04/20 10:04:58;;;;;;;6.10;4.88;;;;;;;;;;5092127;28;20044;-68
2023/04/20 10:07:26;;;;;;;5.85;5.00;;;;;;;;;;5092615;28;20048;-68
2023/04/20 10:10:05;;;;;;;7.18;4.85;;;;;;;;;;5092536;28;20043;-68
2023/04/20 10:12:35;;;;;;;7.90;5.93;;;;;;;;;;5092487;28;20044;-67
2023/04/20 10:15:02;;;;;;;6.50;4.93;;;;;;;;;;5092463;28;20052;-68
2023/04/20 10:17:30;;;;;;;5.70;4.82;;;;;;;;;;5092583;28;20048;-68
2023/04/20 10:19:57;;;;;;;5.50;4.78;;;;;;;;;;5092061;28;20048;-68
2023/04/20 10:22:31;;;;;;;7.28;5.18;;;;;;;;;;5092688;28;20052;-67
2023/04/20 10:24:58;;;;;;;5.15;4.50;;;;;;;;;;5071640;28;20131;-67
2023/04/20 10:27:25;;;;;;;6.53;4.70;;;;;;;;;;5072420;28;20551;-68
2023/04/20 10:29:53;;;;;;;8.05;5.00;;;;;;;;;;5072012;28;20045;-68
2023/04/20 10:32:24;;;;;;;8.00;5.75;;;;;;;;;;5071621;28;20048;-68
2023/04/20 10:35:02;;;;;;;6.13;5.05;;;;;;;;;;5072201;28;20048;-68
2023/04/20 10:37:28;;;;;;;8.00;5.50;;;;;;;;;;5071969;28;20098;-67
2023/04/20 10:39:55;;;;;;;6.22;4.97;;;;;;;;;;5072130;28;20063;-67
2023/04/20 10:42:21;;;;;;;6.15;5.13;;;;;;;;;;5071968;28;20046;-68
2023/04/20 10:44:48;;;;;;;8.70;5.65;;;;;;;;;;5085818;22;20031;-64
2023/04/20 10:47:17;;;;;;;6.55;5.38;;;;;;;;;;5096686;28;20509;-65
2023/04/20 10:49:44;;;;;;;6.72;5.13;;;;;;;;;;5098085;28;20147;-65
2023/04/20 10:52:10;;;;;;;6.45;5.43;;;;;;;;;;5096391;28;20420;-65
2023/04/20 10:54:38;;;;;;;6.00;5.22;;;;;;;;;;5096834;28;20112;-64
2023/04/20 10:57:06;;;;;;;6.30;4.82;;;;;;;;;;5092832;28;20497;-64
2023/04/20 10:59:36;;;;;;;6.30;5.13;;;;;;;;;;5094389;28;20130;-64
2023/04/20 11:02:07;;;;;;;6.97;5.03;;;;;;;;;;5095469;28;20044;-65
2023/04/20 11:04:35;;;;;;;6.47;5.35;;;;;;;;;;5095836;28;20040;-64
2023/04/20 11:07:07;;;;;;;6.72;5.03;;;;;;;;;;5095904;28;20073;-65
2023/04/20 11:09:37;;;;;;;7.53;5.88;;;;;;;;;;5096265;28;20044;-65
2023/04/20 11:12:04;;;;;;;6.22;5.28;;;;;;;;;;5095523;28;20052;-64
2023/04/20 11:14:34;;;;;;;7.03;5.53;;;;;;;;;;5096038;28;20071;-65
2023/04/20 11:17:01;;;;;;;7.53;5.15;;;;;;;;;;5095334;28;20051;-65
2023/04/20 11:19:29;;;;;;;6.57;5.32;;;;;;;;;;5095929;28;20461;-65
2023/04/20 11:21:57;;;;;;;10.30;5.22;;;;;;;;;;5096006;28;20394;-65
2023/04/20 11:24:25;;;;;;;5.95;4.60;;;;;;;;;;5095184;28;20044;-65
2023/04/20 11:26:53;;;;;;;6.70;5.03;;;;;;;;;;5095850;28;20048;-65
2023/04/20 11:29:30;;;;;;;6.18;4.90;;;;;;;;;;5095550;28;20048;-65
2023/04/20 11:31:57;;;;;;;6.07;4.68;;;;;;;;;;5097021;28;20063;-65
2023/04/20 11:34:24;;;;;;;5.18;4.60;;;;;;;;;;5081033;28;20044;-65
2023/04/20 11:36:51;;;;;;;5.70;4.55;;;;;;;;;;5075374;28;20045;-65
2023/04/20 11:39:26;;;;;;;5.90;4.80;;;;;;;;;;5074792;28;20063;-65
2023/04/20 11:41:52;;;;;;;5.93;5.20;;;;;;;;;;5075654;28;20485;-64
2023/04/20 11:44:20;;;;;;;8.05;4.43;;;;;;;;;;5076798;28;20044;-65
2023/04/20 11:46:48;;;;;;;8.23;5.45;;;;;;;;;;5076197;28;20055;-65
2023/04/20 11:49:15;;;;;;;5.50;4.88;;;;;;;;;;5075277;28;20053;-66
2023/04/20 11:51:42;;;;;;;5.57;4.60;;;;;;;;;;5075835;28;20056;-65
2023/04/20 11:54:09;;;;;;;6.70;5.55;;;;;;;;;;5076154;28;20141;-65
2023/04/20 11:56:37;;;;;;;6.72;4.93;;;;;;;;;;5076543;28;20066;-65
2023/04/20 11:59:04;;;;;;;11.27;5.30;;;;;;;;;;5076029;28;20048;-65
2023/04/20 12:01:31;;;;;;;6.07;4.97;;;;;;;;;;5074762;28;20072;-66
2023/04/20 12:04:00;;;;;;;4.75;4.25;;;;;;;;;;5074966;28;20041;-65
2023/04/20 12:06:27;;;;;;;5.68;4.43;;;;;;;;;;5075726;28;20047;-66
2023/04/20 12:08:54;;;;;;;5.32;4.60;;;;;;;;;;5076001;28;20045;-65
2023/04/20 12:11:20;;;;;;;5.45;4.70;;;;;;;;;;5076093;28;20044;-65
2023/04/20 12:13:48;;;;;;;4.97;4.10;;;;;;;;;;5075909;28;20473;-65
2023/04/20 12:16:15;;;;;;;5.88;4.35;;;;;;;;;;5074746;28;20044;-66
2023/04/20 12:18:42;;;;;;;5.68;4.70;;;;;;;;;;5083191;28;20067;-65
2023/04/20 12:21:08;;;;;;;4.97;4.35;;;;;;;;;;5094682;28;20040;-65
2023/04/20 12:23:35;;;;;;;7.18;5.82;;;;;;;;;;5094863;28;20143;-65
2023/04/20 12:26:02;;;;;;;6.03;5.20;;;;;;;;;;5094864;28;20048;-65
2023/04/20 12:28:29;;;;;;;6.20;4.38;;;;;;;;;;5093812;28;20044;-65
2023/04/20 12:30:57;;;;;;;6.43;4.47;;;;;;;;;;5093621;28;20127;-65
2023/04/20 12:33:24;;;;;;;5.78;4.65;;;;;;;;;;5094203;28;20400;-65
2023/04/20 12:35:51;;;;;;;5.55;4.43;;;;;;;;;;5081785;28;20040;-65
2023/04/20 12:38:17;;;;;;;5.85;4.85;;;;;;;;;;5083308;28;20074;-65
2023/04/20 12:40:44;;;;;;;5.90;4.57;;;;;;;;;;5092681;28;20047;-64
2023/04/20 12:43:11;;;;;;;6.75;4.63;;;;;;;;;;5094051;28;20040;-65
2023/04/20 12:45:37;;;;;;;5.57;4.65;;;;;;;;;;5093859;28;20550;-65
2023/04/20 12:48:05;;;;;;;5.75;4.88;;;;;;;;;;5094245;28;20131;-65
2023/04/20 12:50:32;;;;;;;5.47;4.80;;;;;;;;;;5097150;28;20127;-64
2023/04/20 12:52:59;;;;;;;5.43;4.53;;;;;;;;;;5097900;28;20127;-65
2023/04/20 12:55:26;;;;;;;5.50;4.15;;;;;;;;;;5098411;28;20432;-65
2023/04/20 12:57:52;;;;;;;6.47;5.28;;;;;;;;;;5095684;28;20048;-65
2023/04/20 13:00:19;;;;;;;6.10;4.80;;;;;;;;;;5097466;28;20382;-63
2023/04/20 13:02:46;;;;;;;5.97;4.72;;;;;;;;;;5098595;28;20198;-64
2023/04/20 13:05:14;;;;;;;5.32;4.60;;;;;;;;;;5096179;28;20067;-63
2023/04/20 13:07:41;;;;;;;6.68;4.38;;;;;;;;;;5097726;28;20044;-63
2023/04/20 13:10:09;;;;;;;5.57;4.32;;;;;;;;;;5099171;28;20346;-63
2023/04/20 13:12:35;;;;;;;6.35;5.32;;;;;;;;;;5099033;28;20044;-65
2023/04/20 13:15:02;;;;;;;5.55;4.50;;;;;;;;;;5098516;28;20478;-63
2023/04/20 13:17:29;;;;;;;5.55;4.70;;;;;;;;;;5099325;28;20048;-64
2023/04/20 13:19:56;;;;;;;5.78;4.10;;;;;;;;;;5099670;28;20055;-64
2023/04/20 13:22:24;;;;;;;7.15;4.80;;;;;;;;;;5098257;28;20150;-64
2023/04/20 13:24:50;;;;;;;4.40;3.72;;;;;;;;;;5098212;28;20573;-64
2023/04/20 13:27:17;;;;;;;4.57;4.00;;;;;;;;;;5099470;28;20067;-64
2023/04/20 13:29:44;;;;;;;6.95;4.05;;;;;;;;;;5102964;28;20291;-63
2023/04/20 13:32:10;;;;;;;4.22;3.83;;;;;;;;;;5102186;28;20052;-66
2023/04/20 13:34:37;;;;;;;4.47;3.80;;;;;;;;;;5101721;28;20044;-64
2023/04/20 13:37:04;;;;;;;4.20;3.80;;;;;;;;;;5081084;28;20222;-64
2023/04/20 13:39:32;;;;;;;4.75;3.80;;;;;;;;;;5091317;28;20519;-64
2023/04/20 13:41:58;;;;;;;5.82;3.97;;;;;;;;;;5101670;28;20044;-64
2023/04/20 13:44:25;;;;;;;4.40;3.88;;;;;;;;;;5101308;28;20558;-64
2023/04/20 13:46:52;;;;;;;5.10;3.78;;;;;;;;;;5101216;28;20040;-66
2023/04/20 13:49:21;;;;;;;4.57;3.80;;;;;;;;;;5102850;28;20062;-64
2023/04/20 13:51:48;;;;;;;4.55;4.15;;;;;;;;;;5101695;28;20301;-64
2023/04/20 13:54:14;;;;;;;4.47;4.00;;;;;;;;;;5101846;28;20048;-64
2023/04/20 13:56:42;;;;;;;6.70;3.90;;;;;;;;;;5102216;28;20135;-64
2023/04/20 13:59:09;;;;;;;5.68;3.97;;;;;;;;;;5101526;28;20052;-64
2023/04/20 14:01:35;;;;;;;7.20;3.80;;;;;;;;;;5101334;28;20478;-64
2023/04/20 14:04:02;;;;;;;4.88;3.83;;;;;;;;;;5103287;28;20048;-63
2023/04/20 14:06:28;;;;;;;4.90;3.95;;;;;;;;;;5089398;28;20104;-64
2023/04/20 14:08:58;;;;;;;4.53;4.13;;;;;;;;;;5096041;28;20113;-66
2023/04/20 14:11:25;;;;;;;3.80;3.40;;;;;;;;;;5100807;28;20054;-64
2023/04/20 14:13:53;;;;;;;4.45;3.72;;;;;;;;;;5101636;28;20508;-64
2023/04/20 14:16:21;;;;;;;4.15;3.67;;;;;;;;;;5100732;28;20048;-64
2023/04/20 14:18:48;;;;;;;3.60;3.10;;;;;;;;;;5101299;28;20087;-64
2023/04/20 14:21:14;;;;;;;3.88;3.47;;;;;;;;;;5102306;28;20044;-64
2023/04/20 14:23:41;;;;;;;4.97;3.53;;;;;;;;;;5101350;28;20058;-64
2023/04/20 14:26:08;;;;;;;5.30;3.50;;;;;;;;;;5101688;28;20131;-64
2023/04/20 14:28:34;;;;;;;4.85;3.60;;;;;;;;;;5100622;28;20044;-64
2023/04/20 14:31:02;;;;;;;3.95;3.50;;;;;;;;;;5100503;28;20102;-64
2023/04/20 14:33:29;;;;;;;6.13;3.65;;;;;;;;;;5101279;28;20048;-64
2023/04/20 14:35:56;;;;;;;6.32;4.20;;;;;;;;;;5094503;28;20054;-64
2023/04/20 14:38:23;;;;;;;4.47;3.78;;;;;;;;;;5088771;28;20048;-64
2023/04/20 14:40:50;;;;;;;4.68;3.42;;;;;;;;;;5077054;28;20048;-64
2023/04/20 14:43:16;;;;;;;3.95;3.47;;;;;;;;;;5077161;28;20052;-64